Nearby METAR Reports

 

KGSP - Greer/Spartansbg, South Carolina, USA
Distance from station: E 4mi, 6km
Updated: Thu, 13-Aug-2020 11:53pm EDT
Clear
Clear
 Wind from NNE
Wind: NNE 3 mph , 6 km/h
Temperature: 72°F , 22°C
Dew Point: 68°F , 20°C
Humidity: 88%
Barometer: 30.03 inHg , 1016.9 hPa
Clouds: Clear
Visibility: 10 miles , 16 km
2020/08/14 03:53 KGSP 140353Z AUTO 02003KT 10SM CLR 22/20 A3003 RMK AO2 SLP157 T02220200
KGMU - Greenville, South Carolina, USA
Distance from station: SW 5mi, 8km
Updated: Thu, 13-Aug-2020 11:53pm EDT
Light rain, Mostly cloudy
Light rain, Mostly cloudy
 Wind from N
Wind: N 6 mph , 9 km/h
Temperature: 75°F , 24°C
Dew Point: 70°F , 21°C
Humidity: 83%
Barometer: 30.04 inHg , 1017.3 hPa
Summary: Light rain
Clouds: Mostly cloudy
Visibility: 10 miles , 16 km
Cloud details: Partly cloudy 4600 ft
Mostly cloudy 9000 ft
Mostly cloudy 11000 ft
2020/08/14 03:53 KGMU 140353Z AUTO 01005KT 10SM -RA SCT046 BKN090 BKN110 24/21 A3004 RMK AO2 RAB41 SLP159 P0000 T02440211
 
KGYH - Greenville, South Carolina, USA
Distance from station: SSW 11mi, 18km
Updated: Fri, 14-Aug-2020 12:15am EDT
Rain, Partly cloudy
Rain, Partly cloudy
 
Temperature: 72°F , 22°C
Dew Point: 72°F , 22°C
Humidity: 100%
Barometer: 30.03 inHg , 1016.9 hPa
Summary: Rain
Clouds: Partly cloudy
Visibility: 10 miles , 16 km
Cloud details: Partly cloudy 3300 ft
Partly cloudy 3800 ft
Partly cloudy 4600 ft
2020/08/14 04:15 KGYH 140415Z AUTO 10SM RA SCT033 SCT038 SCT046 22/22 A3003 RMK AO2 P0001
KSPA - Spartanburg, South Carolina, USA
Distance from station: E 20mi, 32km
Updated: Fri, 14-Aug-2020 12:15am EDT
Clear
Clear
 Wind from calm
Wind: Calm
Temperature: 72°F , 22°C
Dew Point: 70°F , 21°C
Humidity: 94%
Barometer: 30.02 inHg , 1016.6 hPa
Clouds: Clear
Visibility: 10 miles , 16 km
2020/08/14 04:15 KSPA 140415Z AUTO 00000KT 10SM CLR 22/21 A3002 RMK AO2
 
KLQK - Pickens, South Carolina, USA
Distance from station: WSW 24mi, 39km
Updated: Fri, 14-Aug-2020 12:15am EDT
Rain, Overcast
Rain, Overcast
 Wind from NNW
Wind: NNW 7 mph , 11 km/h
Temperature: 72°F , 22°C
Dew Point: 72°F , 22°C
Humidity: 100%
Barometer: 30.04 inHg , 1017.3 hPa
Summary: Rain
Clouds: Overcast
Visibility: 7 miles , 11 km
Cloud details: Mostly cloudy 5000 ft
Overcast 7000 ft
2020/08/14 04:15 KLQK 140415Z AUTO 33006KT 7SM RA BKN050 OVC070 22/22 A3004 RMK AO2 P0003 T02200220
KLUX - Laurens, South Carolina, USA
Distance from station: SE 33mi, 54km
Updated: Fri, 14-Aug-2020 12:15am EDT
Mist, Clear
Mist, Clear
 Wind from calm
Wind: Calm
Temperature: 70°F , 21°C
Dew Point: 70°F , 21°C
Humidity: 100%
Barometer: 30.01 inHg , 1016.3 hPa
Summary: Mist
Clouds: Clear
Visibility: 5 miles , 8 km
2020/08/14 04:15 KLUX 140415Z AUTO 00000KT 5SM BR CLR 21/21 A3001 RMK AO2
 
KAND - Anderson, South Carolina, USA
Distance from station: SW 37mi, 59km
Updated: Fri, 14-Aug-2020 12:18am EDT
Nearby thunderstorm, Rain, Mostly cloudy
Nearby thunderstorm, Rain, Mostly cloudy
 Wind from NW
Wind: NW 7 mph , 11 km/h
Temperature: 73°F , 23°C
Dew Point: 70°F , 21°C
Humidity: 89%
Barometer: 30.02 inHg , 1016.6 hPa
Summary: Nearby thunderstorm, Rain
Clouds: Mostly cloudy
Visibility: 8 miles , 13 km
Cloud details: Partly cloudy 4400 ft
Mostly cloudy 9500 ft
Mostly cloudy 12000 ft
2020/08/14 04:18 KAND 140418Z AUTO 31006KT 8SM VCTS RA SCT044 BKN095 BKN120 23/21 A3002 RMK AO2 LTG DSNT S AND NW P0002 T02280211
KCEU - Clemson, South Carolina, USA
Distance from station: WSW 37mi, 60km
Updated: Fri, 14-Aug-2020 12:25am EDT
Nearby thunderstorm, Heavy rain, Mist, Overcast
Nearby thunderstorm, Heavy rain, Mist, Overcast
 Wind from WNW
Wind: WNW 8 mph , 13 km/h
Temperature: 72°F , 22°C
Dew Point: 70°F , 21°C
Humidity: 94%
Barometer: 30.05 inHg , 1017.6 hPa
Summary: Nearby thunderstorm, Heavy rain, Mist
Clouds: Overcast
Visibility: 1 3/4 miles , 2.8 km
Cloud details: Few Clouds 1300 ft
Mostly cloudy 4900 ft
Overcast 6000 ft
2020/08/14 04:25 KCEU 140425Z AUTO 30007KT 1 3/4SM VCTS +RA BR FEW013 BKN049 OVC060 22/21 A3005 RMK AO2 LTG DSNT ALQDS RAB15 P0008 T02220211
 
KAVL - Asheville, North Carolina, USA
Distance from station: NNW 40mi, 64km
Updated: Fri, 14-Aug-2020 12:26am EDT
Few Clouds
Few Clouds
 Wind from SSE
Wind: SSE 5 mph , 7 km/h
Temperature: 70°F , 21°C
Dew Point: 70°F , 21°C
Humidity: 100%
Barometer: 30.09 inHg , 1019 hPa
Clouds: Few Clouds
Visibility: 10 miles , 16 km
Cloud details: Few Clouds 200 ft
2020/08/14 04:26 KAVL 140426Z AUTO 15004KT 10SM FEW002 21/21 A3009 RMK AO2 T02110206
KFQD - Rutherfordton, North Carolina, USA
Distance from station: NNE 41mi, 66km
Updated: Mon, 03-Aug-2020 7:35am EDT
NOT Current
Nearby thunderstorm, Overcast
Nearby thunderstorm, Overcast
 Wind from calm
Wind: Calm
Temperature: 70°F , 21°C
Dew Point: 70°F , 21°C
Humidity: 100%
Barometer: 30.06 inHg , 1017.9 hPa
Summary: Nearby Thunderstorm
Clouds: Overcast
Visibility: 10 miles , 16 km
Cloud details: Mostly cloudy 1600 ft
Mostly cloudy 2500 ft
Overcast 3300 ft
2020/08/03 11:35 KFQD 031135Z AUTO 00000KT 10SM VCTS BKN016 BKN025 OVC033 21/21 A3006 RMK AO2 LTG DSNT SW THRU NW
 
KGRD - Greenwood, South Carolina, USA
Distance from station: S 45mi, 73km
Updated: Thu, 13-Aug-2020 11:56pm EDT
Clear
Clear
 Wind from N
Wind: N 5 mph , 7 km/h
Temperature: 70°F , 21°C
Dew Point: 70°F , 21°C
Humidity: 100%
Barometer: 30.02 inHg , 1016.6 hPa
Clouds: Clear
Visibility: 10 miles , 16 km
2020/08/14 03:56 KGRD 140356Z AUTO 36004KT 10SM CLR 21/21 A3002 RMK AO2 SLP158 T02110211
KEHO - Shelby Muni, North Carolina, USA
Distance from station: ENE 46mi, 74km
Updated: Fri, 14-Aug-2020 12:15am EDT
Clear
Clear
 Wind from calm
Wind: Calm
Temperature: 70°F , 21°C
Dew Point: 70°F , 21°C
Humidity: 100%
Barometer: 30.03 inHg , 1016.9 hPa
Clouds: Clear
Visibility: 10 miles , 16 km
2020/08/14 04:15 KEHO 140415Z AUTO 00000KT 10SM CLR 21/21 A3003 RMK AO2 T02130212